KNRS/NRS METAR and TAF weather

Enter ICAO airport designator
Station Type Date Time Source
KNRS METAR 2019/11/15 04:56 UTC NOAA

KNRS 150456Z 34006KT 8SM SCT014 BKN250 16/14 A3013 RMK AO2 SLP203 T01610139 $


Station Type Date Time Source
KNRS Decoded METAR 2019/11/15 04:56 UTC NOAA

IMPERIAL BEACH, NOLF, CA, United States (KNRS) 32-34N 117-07W 5M
Nov 14, 2019 - 11:56 PM EST / 2019.11.15 0456 UTC
Wind: from the NNW (340 degrees) at 7 MPH (6 KT):0
Visibility: 8 mile(s):0
Sky conditions: mostly cloudy
Temperature: 61.0 F (16.1 C)
Dew Point: 57.0 F (13.9 C)
Relative Humidity: 86%
Pressure (altimeter): 30.13 in. Hg (1020 hPa)
ob: KNRS 150456Z 34006KT 8SM SCT014 BKN250 16/14 A3013 RMK AO2 SLP203 T01610139
cycle: 5

Station Type Date Time Source
KNRS TAF UTC NOAA

Error!

Example: see airport list